Terminal Aerodrome Forecast
Issued by NWS

Home | Current Version | Previous Version | Text Only | Print | Product List | Glossary On
Versions: 1 2 3 4 5 6 7 8 9 10 11 12 13 14 15 16 17 18 19 20 21 22 23 24 25 26 27 28 29 30 31 32
000
FTUS44 KHGX 291504 AAA
TAFLBX
TAF AMD
KLBX 291504Z 2915/3012 VRB03KT P6SM SKC
     FM291630 21008KT P6SM SCT015 SCT110 SCT250
     FM292000 20007KT P6SM SCT035 SCT120
     FM300200 VRB03KT 3SM BR SCT015 BKN110
      TEMPO 3002/3006 1SM BR BKN007
     FM300600 36010KT P6SM SCT030 BKN110 BKN200=

USA.gov is the U.S. government's official web portal to all federal, state and local government web resources and services.